Time;durP1;ratioP1;P1;durP2;ratioP2;P2;SDS_P1;SDS_P2;PMS_P1;PMS_P2;Temp;Humidity;BMP_temperature;BMP_pressure;BME280_temperature;BME280_humidity;BME280_pressure;Samples;Min_cycle;Max_cycle;Signal;HPM_P1;HPM_P2
2021/10/03 00:01:13;;;;;;;3.20;3.00;;;9.10;82.60;;;;;;5011819;28;20181;-70
2021/10/03 00:03:47;;;;;;;2.80;2.60;;;9.10;83.00;;;;;;5009682;28;20177;-69
2021/10/03 00:06:13;;;;;;;2.43;2.23;;;9.00;82.90;;;;;;5007880;28;20258;-69
2021/10/03 00:08:39;;;;;;;2.53;2.43;;;9.00;82.80;;;;;;5007730;28;20181;-69
2021/10/03 00:11:06;;;;;;;2.73;2.53;;;9.00;83.00;;;;;;5018034;28;20835;-70
2021/10/03 00:13:33;;;;;;;2.67;2.20;;;8.90;83.20;;;;;;5007467;28;20193;-70
2021/10/03 00:16:00;;;;;;;4.40;2.90;;;8.80;84.40;;;;;;5008117;28;20188;-70
2021/10/03 00:18:26;;;;;;;3.07;2.03;;;8.70;84.30;;;;;;5014551;28;20207;-70
2021/10/03 00:20:53;;;;;;;2.43;2.33;;;8.70;84.30;;;;;;5013501;28;20180;-70
2021/10/03 00:23:19;;;;;;;6.73;2.33;;;8.70;84.10;;;;;;5010459;28;20609;-70
2021/10/03 00:25:46;;;;;;;2.67;2.53;;;8.60;84.30;;;;;;5008244;28;20659;-70
2021/10/03 00:28:12;;;;;;;3.37;2.47;;;8.60;85.10;;;;;;5014470;28;20567;-69
2021/10/03 00:30:40;;;;;;;3.23;2.90;;;8.60;84.90;;;;;;5016449;28;20185;-71
2021/10/03 00:33:06;;;;;;;2.83;2.47;;;8.60;84.70;;;;;;5011250;28;20251;-70
2021/10/03 00:35:32;;;;;;;2.70;2.60;;;8.50;84.90;;;;;;5009493;28;20196;-70
2021/10/03 00:38:01;;;;;;;2.03;1.97;;;8.50;84.70;;;;;;5014088;28;20176;-70
2021/10/03 00:40:29;;;;;;;2.90;2.27;;;8.50;84.80;;;;;;5009843;28;20181;-70
2021/10/03 00:42:55;;;;;;;2.53;2.10;;;8.40;84.50;;;;;;5012066;28;20295;-70
2021/10/03 00:45:21;;;;;;;2.37;2.10;;;8.40;85.30;;;;;;5004225;28;20640;-70
2021/10/03 00:47:47;;;;;;;3.60;2.13;;;8.40;85.30;;;;;;5008132;28;20875;-70
2021/10/03 00:50:14;;;;;;;2.50;2.27;;;8.40;84.90;;;;;;5011859;28;20181;-70
2021/10/03 00:52:45;;;;;;;4.00;2.87;;;8.40;84.90;;;;;;5014296;28;20216;-70
2021/10/03 00:55:12;;;;;;;1.73;1.70;;;8.40;84.50;;;;;;5010541;28;20214;-70
2021/10/03 00:57:43;;;;;;;2.10;2.00;;;8.40;84.70;;;;;;5011069;28;20184;-70
2021/10/03 01:00:11;;;;;;;2.47;2.27;;;8.40;84.90;;;;;;5007364;28;20934;-70
2021/10/03 01:02:37;;;;;;;2.93;1.90;;;8.40;84.80;;;;;;5013217;28;20703;-70
2021/10/03 01:05:07;;;;;;;2.33;2.13;;;8.30;84.70;;;;;;5010949;28;20204;-70
2021/10/03 01:07:33;;;;;;;1.93;1.83;;;8.30;84.60;;;;;;5010709;28;20184;-70
2021/10/03 01:10:00;;;;;;;1.67;1.63;;;8.20;85.30;;;;;;5010087;28;20212;-71
2021/10/03 01:12:26;;;;;;;2.20;2.10;;;8.20;85.10;;;;;;5017182;28;20268;-70
2021/10/03 01:14:52;;;;;;;2.30;2.20;;;8.10;85.00;;;;;;5007915;28;20267;-70
2021/10/03 01:17:17;;;;;;;1.83;1.73;;;8.10;85.30;;;;;;5009919;28;20241;-70
2021/10/03 01:19:43;;;;;;;2.37;1.77;;;8.00;85.30;;;;;;5011582;28;20212;-70
2021/10/03 01:22:09;;;;;;;3.13;2.77;;;8.00;85.70;;;;;;5013655;28;20208;-69
2021/10/03 01:24:34;;;;;;;4.13;2.17;;;8.00;85.60;;;;;;5015752;28;20207;-70
2021/10/03 01:27:02;;;;;;;2.03;1.90;;;8.00;85.70;;;;;;5013007;28;20177;-71
2021/10/03 01:29:29;;;;;;;2.17;1.80;;;8.00;86.20;;;;;;5012480;28;21018;-71
2021/10/03 01:31:55;;;;;;;2.57;2.40;;;7.90;86.50;;;;;;5015913;28;20595;-70
2021/10/03 01:34:21;;;;;;;2.00;1.90;;;7.90;86.40;;;;;;5015524;28;20226;-71
2021/10/03 01:36:47;;;;;;;2.33;2.10;;;7.90;86.50;;;;;;5019416;28;20615;-70
2021/10/03 01:39:13;;;;;;;3.07;2.53;;;7.90;86.70;;;;;;5012595;28;20738;-71
2021/10/03 01:41:38;;;;;;;3.20;1.90;;;7.90;86.70;;;;;;5015978;28;20249;-70
2021/10/03 01:44:04;;;;;;;4.90;2.20;;;7.90;86.80;;;;;;5015530;28;20640;-70
2021/10/03 01:46:30;;;;;;;2.20;1.90;;;7.90;86.70;;;;;;5021765;28;20560;-70
2021/10/03 01:48:56;;;;;;;2.07;1.80;;;7.90;86.40;;;;;;5007197;28;20271;-70
2021/10/03 01:51:22;;;;;;;2.37;2.07;;;7.90;86.40;;;;;;5018361;28;20185;-70
2021/10/03 01:53:50;;;;;;;2.00;1.90;;;7.80;86.60;;;;;;5012871;28;20212;-70
2021/10/03 01:56:17;;;;;;;2.67;2.33;;;7.80;86.50;;;;;;5014024;28;20264;-70
2021/10/03 01:58:53;;;;;;;1.83;1.77;;;7.80;86.60;;;;;;5011355;28;20192;-70
2021/10/03 02:01:25;;;;;;;1.83;1.73;;;7.70;86.70;;;;;;5017905;28;20208;-71
2021/10/03 02:03:51;;;;;;;2.17;2.07;;;7.70;86.60;;;;;;5016445;28;20240;-70
2021/10/03 02:06:17;;;;;;;2.00;1.53;;;7.70;86.70;;;;;;5013778;28;20573;-70
2021/10/03 02:08:43;;;;;;;1.87;1.67;;;7.60;86.50;;;;;;5009762;28;20940;-70
2021/10/03 02:11:09;;;;;;;1.80;1.70;;;7.60;86.70;;;;;;5016297;28;20204;-71
2021/10/03 02:13:35;;;;;;;2.23;2.10;;;7.60;86.70;;;;;;5013244;28;20612;-70
2021/10/03 02:16:01;;;;;;;1.60;1.50;;;7.60;86.80;;;;;;5012020;28;20185;-70
2021/10/03 02:18:37;;;;;;;1.87;1.77;;;7.60;86.90;;;;;;5014560;28;20191;-71
2021/10/03 02:21:04;;;;;;;1.90;1.47;;;7.50;87.20;;;;;;5014871;28;20212;-71
2021/10/03 02:23:34;;;;;;;1.37;1.37;;;7.50;87.30;;;;;;5008869;28;20284;-71
2021/10/03 02:26:01;;;;;;;1.30;1.30;;;7.60;87.40;;;;;;5013176;28;20189;-71
2021/10/03 02:28:27;;;;;;;1.77;1.67;;;7.50;87.40;;;;;;5019719;28;20275;-71
2021/10/03 02:31:00;;;;;;;2.07;1.97;;;7.50;87.10;;;;;;5014588;28;20185;-71
2021/10/03 02:33:27;;;;;;;1.77;1.67;;;7.50;87.40;;;;;;5011129;28;20227;-70
2021/10/03 02:35:55;;;;;;;2.00;1.60;;;7.50;87.40;;;;;;5013865;28;20189;-70
2021/10/03 02:38:23;;;;;;;1.70;1.70;;;7.40;87.70;;;;;;5013197;28;20185;-71
2021/10/03 02:40:52;;;;;;;2.90;1.73;;;7.50;87.50;;;;;;5013925;28;20188;-71
2021/10/03 02:43:18;;;;;;;1.67;1.63;;;7.40;87.50;;;;;;5013980;28;20216;-71
2021/10/03 02:45:48;;;;;;;2.50;1.40;;;7.40;87.70;;;;;;5023144;28;20184;-70
2021/10/03 02:48:14;;;;;;;2.30;2.00;;;7.40;87.60;;;;;;5013942;28;20247;-70
2021/10/03 02:50:40;;;;;;;2.80;1.50;;;7.40;87.80;;;;;;5013695;28;20581;-70
2021/10/03 02:53:09;;;;;;;1.70;1.60;;;7.40;87.80;;;;;;5014085;28;20199;-70
2021/10/03 02:55:37;;;;;;;1.13;1.13;;;7.30;87.90;;;;;;5010575;28;20177;-70
2021/10/03 02:58:03;;;;;;;3.17;1.60;;;7.30;88.40;;;;;;5015299;28;20263;-70
2021/10/03 03:00:30;;;;;;;7.07;1.73;;;7.20;88.30;;;;;;5015616;28;20189;-70
2021/10/03 03:02:56;;;;;;;1.93;1.77;;;7.20;88.20;;;;;;5013736;28;20828;-70
2021/10/03 03:05:21;;;;;;;1.23;1.23;;;7.10;88.30;;;;;;5007926;28;20185;-70
2021/10/03 03:07:47;;;;;;;2.10;1.70;;;7.10;88.40;;;;;;5018144;28;20652;-71
2021/10/03 03:10:12;;;;;;;2.17;2.07;;;7.10;88.20;;;;;;5010206;28;20185;-70
2021/10/03 03:12:38;;;;;;;2.03;1.93;;;7.10;88.20;;;;;;5017812;28;20279;-70
2021/10/03 03:15:06;;;;;;;1.00;1.00;;;7.10;88.40;;;;;;5006546;28;20189;-70
2021/10/03 03:17:32;;;;;;;1.63;1.30;;;7.10;88.40;;;;;;5007899;28;20228;-70
2021/10/03 03:19:58;;;;;;;2.43;1.63;;;7.00;88.20;;;;;;5013233;28;20630;-70
2021/10/03 03:22:25;;;;;;;1.80;1.60;;;7.00;88.30;;;;;;5013900;28;20683;-70
2021/10/03 03:24:52;;;;;;;1.77;1.67;;;7.00;88.20;;;;;;5014978;28;20184;-70
2021/10/03 03:27:18;;;;;;;1.97;1.43;;;7.00;88.30;;;;;;5013459;28;20196;-70
2021/10/03 03:29:43;;;;;;;3.07;2.13;;;7.00;88.30;;;;;;5014687;28;20184;-71
2021/10/03 03:32:09;;;;;;;1.70;1.60;;;7.00;88.30;;;;;;5009959;28;20808;-70
2021/10/03 03:34:35;;;;;;;4.63;1.60;;;7.00;88.20;;;;;;5014612;28;20189;-70
2021/10/03 03:37:01;;;;;;;2.00;1.90;;;7.00;88.30;;;;;;5019489;28;20203;-70
2021/10/03 03:39:27;;;;;;;1.63;1.53;;;7.00;88.30;;;;;;5017033;28;20184;-70
2021/10/03 03:41:53;;;;;;;1.93;1.83;;;7.00;88.50;;;;;;5012569;28;20274;-69
2021/10/03 03:44:18;;;;;;;1.43;1.33;;;6.90;88.40;;;;;;5012449;28;20929;-68
2021/10/03 03:46:44;;;;;;;1.50;1.40;;;7.00;88.30;;;;;;5016739;28;20291;-70
2021/10/03 03:49:10;;;;;;;1.70;1.60;;;7.00;88.40;;;;;;5006516;28;20247;-69
2021/10/03 03:51:35;;;;;;;2.63;1.93;;;6.90;88.50;;;;;;5006904;28;20181;-69
2021/10/03 03:54:02;;;;;;;2.63;1.60;;;6.90;88.40;;;;;;5013478;28;20189;-69
2021/10/03 03:56:27;;;;;;;1.93;1.83;;;6.90;88.50;;;;;;5014976;28;20831;-69
2021/10/03 03:58:53;;;;;;;1.77;1.73;;;6.90;88.50;;;;;;5007570;28;20216;-69
2021/10/03 04:01:20;;;;;;;1.77;1.67;;;6.90;88.50;;;;;;5011306;28;20246;-69
2021/10/03 04:03:46;;;;;;;1.93;1.73;;;6.90;88.70;;;;;;5009814;28;20191;-70
2021/10/03 04:06:12;;;;;;;2.00;1.70;;;6.90;88.80;;;;;;5012219;28;20177;-70
2021/10/03 04:08:38;;;;;;;1.77;1.77;;;6.90;88.70;;;;;;5010568;28;20549;-71
2021/10/03 04:11:05;;;;;;;2.10;1.90;;;6.90;89.00;;;;;;5014034;28;20685;-70
2021/10/03 04:13:31;;;;;;;2.53;2.10;;;6.90;89.10;;;;;;5008107;28;20299;-69
2021/10/03 04:15:57;;;;;;;1.57;1.57;;;6.90;88.90;;;;;;5020163;28;20185;-69
2021/10/03 04:18:23;;;;;;;1.80;1.70;;;6.90;88.90;;;;;;5012541;28;20191;-70
2021/10/03 04:20:48;;;;;;;2.53;2.20;;;6.90;88.90;;;;;;5015742;28;20208;-69
2021/10/03 04:23:14;;;;;;;1.60;1.50;;;6.90;89.20;;;;;;5011251;28;20219;-70
2021/10/03 04:25:40;;;;;;;2.43;2.33;;;6.90;89.00;;;;;;5012049;28;20674;-70
2021/10/03 04:28:06;;;;;;;3.17;2.17;;;6.80;89.20;;;;;;5015628;28;20677;-70
2021/10/03 04:30:32;;;;;;;2.17;1.90;;;6.80;89.10;;;;;;5016360;28;20199;-70
2021/10/03 04:32:58;;;;;;;3.43;2.57;;;6.80;89.30;;;;;;5015512;28;20189;-70
2021/10/03 04:35:24;;;;;;;2.53;2.33;;;6.80;89.30;;;;;;5021074;28;20211;-69
2021/10/03 04:37:50;;;;;;;4.90;2.37;;;6.80;89.30;;;;;;5015898;28;20195;-70
2021/10/03 04:40:16;;;;;;;2.30;2.20;;;6.80;89.40;;;;;;5009368;28;20223;-70
2021/10/03 04:42:42;;;;;;;5.73;2.83;;;6.80;89.40;;;;;;5012521;28;20216;-69
2021/10/03 04:45:08;;;;;;;1.73;1.67;;;6.80;89.60;;;;;;5008598;28;20180;-69
2021/10/03 04:47:33;;;;;;;2.23;2.03;;;6.80;89.70;;;;;;5009047;28;20189;-71
2021/10/03 04:50:00;;;;;;;8.00;2.10;;;6.80;90.00;;;;;;5008432;28;20641;-70
2021/10/03 04:52:26;;;;;;;3.10;2.03;;;6.80;90.00;;;;;;5012982;28;20691;-70
2021/10/03 04:54:53;;;;;;;2.43;2.23;;;6.80;90.10;;;;;;5013070;28;20191;-70
2021/10/03 04:57:19;;;;;;;2.23;2.13;;;6.80;90.00;;;;;;5012612;28;20208;-70
2021/10/03 04:59:45;;;;;;;2.33;2.23;;;6.80;89.90;;;;;;5012551;28;20185;-70
2021/10/03 05:02:11;;;;;;;2.33;2.20;;;6.90;89.90;;;;;;5007335;28;20282;-70
2021/10/03 05:04:37;;;;;;;3.70;2.63;;;6.90;89.80;;;;;;5011868;28;20238;-70
2021/10/03 05:07:03;;;;;;;2.97;2.47;;;6.90;89.70;;;;;;5014915;28;20181;-69
2021/10/03 05:09:29;;;;;;;4.43;2.10;;;6.90;90.00;;;;;;5010645;28;20566;-69
2021/10/03 05:11:54;;;;;;;4.87;2.87;;;6.90;90.20;;;;;;5013108;28;20196;-69
2021/10/03 05:14:20;;;;;;;1.93;1.83;;;7.00;90.00;;;;;;5014902;28;20189;-70
2021/10/03 05:16:46;;;;;;;3.77;2.00;;;7.00;90.00;;;;;;5013068;28;20184;-68
2021/10/03 05:19:12;;;;;;;4.47;2.70;;;7.00;90.00;;;;;;5005961;28;20212;-69
2021/10/03 05:21:38;;;;;;;2.50;2.03;;;7.10;90.00;;;;;;5010394;28;20654;-69
2021/10/03 05:24:04;;;;;;;2.90;2.60;;;7.10;90.20;;;;;;5011126;28;20217;-68
2021/10/03 05:26:30;;;;;;;2.20;2.07;;;7.10;90.20;;;;;;5009820;28;20195;-69
2021/10/03 05:28:56;;;;;;;2.83;2.23;;;7.10;90.00;;;;;;5005663;28;20185;-67
2021/10/03 05:31:23;;;;;;;3.47;2.50;;;7.20;89.90;;;;;;5010082;28;20557;-70
2021/10/03 05:33:50;;;;;;;2.70;2.47;;;7.20;89.90;;;;;;5009185;28;20189;-69
2021/10/03 05:36:16;;;;;;;2.80;2.47;;;7.30;89.80;;;;;;5011591;28;20185;-70
2021/10/03 05:38:42;;;;;;;2.63;2.43;;;7.30;89.70;;;;;;5008565;28;20242;-68
2021/10/03 05:41:09;;;;;;;2.57;2.00;;;7.30;89.60;;;;;;5012254;28;20200;-70
2021/10/03 05:43:37;;;;;;;2.03;1.90;;;7.40;89.20;;;;;;5009116;28;20196;-69
2021/10/03 05:46:07;;;;;;;3.10;2.03;;;7.40;88.90;;;;;;5020624;28;20176;-69
2021/10/03 05:48:33;;;;;;;1.70;1.60;;;7.40;88.90;;;;;;5009577;28;20495;-69
2021/10/03 05:51:00;;;;;;;2.30;2.10;;;7.50;88.80;;;;;;5010651;28;20191;-68
2021/10/03 05:53:26;;;;;;;1.93;1.87;;;7.50;88.80;;;;;;5007483;28;20185;-68
2021/10/03 05:55:52;;;;;;;1.60;1.60;;;7.60;88.50;;;;;;5014871;28;20180;-68
2021/10/03 05:58:18;;;;;;;5.00;2.10;;;7.60;88.20;;;;;;5010309;28;20195;-68
2021/10/03 06:00:43;;;;;;;1.73;1.63;;;7.60;88.00;;;;;;5006515;28;20271;-66
2021/10/03 06:03:09;;;;;;;2.10;1.63;;;7.60;87.90;;;;;;5015132;28;20587;-66
2021/10/03 06:05:35;;;;;;;1.57;1.53;;;7.70;87.90;;;;;;5007623;28;20193;-69
2021/10/03 06:08:01;;;;;;;1.93;1.83;;;7.70;88.00;;;;;;5010301;28;20188;-69
2021/10/03 06:10:26;;;;;;;1.37;1.27;;;7.80;87.90;;;;;;5014696;28;20184;-69
2021/10/03 06:12:52;;;;;;;1.07;1.07;;;7.80;87.70;;;;;;5008802;28;20213;-69
2021/10/03 06:15:18;;;;;;;1.50;1.40;;;7.90;87.60;;;;;;5011147;28;20186;-69
2021/10/03 06:17:44;;;;;;;1.73;1.63;;;7.90;87.60;;;;;;5014994;28;20204;-69
2021/10/03 06:20:12;;;;;;;2.00;1.60;;;8.00;87.50;;;;;;5005307;28;20177;-69
2021/10/03 06:22:40;;;;;;;1.90;1.57;;;8.00;87.60;;;;;;5012527;28;20220;-69
2021/10/03 06:25:07;;;;;;;1.90;1.50;;;8.10;87.60;;;;;;5014098;28;20207;-74
2021/10/03 06:27:33;;;;;;;2.10;1.60;;;8.20;87.80;;;;;;5012638;28;20189;-73
2021/10/03 06:29:59;;;;;;;1.83;1.77;;;8.20;87.60;;;;;;5026343;28;20191;-74
2021/10/03 06:32:24;;;;;;;2.10;1.90;;;8.30;87.30;;;;;;5006880;28;20217;-74
2021/10/03 06:34:51;;;;;;;1.87;1.77;;;8.30;87.20;;;;;;5007913;28;20209;-74
2021/10/03 06:37:17;;;;;;;2.10;1.87;;;8.40;87.20;;;;;;5040761;28;20189;-70
2021/10/03 06:39:43;;;;;;;1.57;1.57;;;8.40;87.10;;;;;;5010830;28;20213;-73
2021/10/03 06:42:09;;;;;;;2.40;2.30;;;8.50;87.00;;;;;;5018401;28;20198;-71
2021/10/03 06:44:35;;;;;;;2.40;2.30;;;8.50;87.10;;;;;;5012202;28;20187;-73
2021/10/03 06:47:05;;;;;;;2.37;2.17;;;8.60;87.10;;;;;;5013828;28;20616;-69
2021/10/03 06:49:31;;;;;;;1.77;1.77;;;8.60;87.30;;;;;;5013098;28;20185;-73
2021/10/03 06:51:57;;;;;;;3.07;2.70;;;8.70;87.50;;;;;;5013349;28;20257;-69
2021/10/03 06:54:23;;;;;;;2.30;2.10;;;8.80;87.20;;;;;;5002377;28;20257;-71
2021/10/03 06:56:48;;;;;;;2.70;2.40;;;8.90;87.00;;;;;;5008920;28;20247;-72
2021/10/03 06:59:16;;;;;;;2.37;2.27;;;8.90;86.90;;;;;;5010760;28;20235;-74
2021/10/03 07:01:42;;;;;;;3.13;1.77;;;9.00;86.80;;;;;;5011818;28;20286;-73
2021/10/03 07:04:07;;;;;;;2.97;2.33;;;9.10;86.70;;;;;;5011573;28;20181;-73
2021/10/03 07:06:33;;;;;;;2.80;2.30;;;9.20;86.70;;;;;;5013132;28;20235;-75
2021/10/03 07:08:59;;;;;;;2.17;2.07;;;9.30;86.60;;;;;;5015392;28;20220;-72
2021/10/03 07:11:24;;;;;;;1.97;1.87;;;9.40;86.30;;;;;;5011444;28;20188;-72
2021/10/03 07:13:50;;;;;;;2.70;2.60;;;9.50;86.20;;;;;;5006976;28;20259;-74
2021/10/03 07:16:17;;;;;;;3.10;2.67;;;9.60;86.10;;;;;;5005219;28;20189;-74
2021/10/03 07:18:43;;;;;;;2.57;2.47;;;9.80;86.00;;;;;;5001907;28;20176;-71
2021/10/03 07:21:09;;;;;;;2.43;2.17;;;9.90;85.70;;;;;;5010185;28;20185;-71
2021/10/03 07:23:35;;;;;;;2.60;2.50;;;10.00;85.30;;;;;;5012931;28;21609;-72
2021/10/03 07:26:01;;;;;;;1.90;1.80;;;10.20;85.10;;;;;;5007041;28;20616;-72
2021/10/03 07:28:26;;;;;;;2.25;2.10;;;10.40;84.70;;;;;;5010080;28;20183;-71
2021/10/03 07:30:52;;;;;;;2.67;2.00;;;10.50;84.50;;;;;;5009226;28;20183;-72
2021/10/03 07:33:18;;;;;;;6.03;2.63;;;10.70;84.10;;;;;;5011868;28;20203;-69
2021/10/03 07:35:46;;;;;;;4.03;2.72;;;10.90;83.90;;;;;;5014302;28;20654;-68
2021/10/03 07:38:12;;;;;;;2.70;2.50;;;11.20;82.80;;;;;;5007721;28;20732;-72
2021/10/03 07:40:38;;;;;;;3.38;2.92;;;11.60;82.50;;;;;;5013667;28;20212;-69
2021/10/03 07:43:04;;;;;;;2.72;2.53;;;12.20;80.90;;;;;;5011425;28;20223;-69
2021/10/03 07:45:30;;;;;;;2.60;2.50;;;12.90;79.60;;;;;;5006806;28;20189;-70
2021/10/03 07:47:55;;;;;;;3.13;2.92;;;13.80;78.10;;;;;;5011397;28;20196;-68
2021/10/03 07:50:23;;;;;;;2.58;2.40;;;15.70;75.60;;;;;;5009074;28;20181;-66
2021/10/03 07:52:49;;;;;;;3.28;3.08;;;15.70;75.20;;;;;;5010256;28;20184;-70
2021/10/03 07:55:14;;;;;;;5.68;3.58;;;16.80;74.10;;;;;;5010329;28;20183;-70
2021/10/03 07:57:40;;;;;;;3.00;2.90;;;17.90;71.00;;;;;;5009918;28;21403;-71
2021/10/03 08:00:07;;;;;;;4.57;2.85;;;18.90;69.50;;;;;;5006420;28;20658;-70
2021/10/03 08:02:33;;;;;;;3.47;3.17;;;19.90;66.80;;;;;;5011979;28;20216;-70
2021/10/03 08:04:58;;;;;;;3.97;3.22;;;20.70;63.90;;;;;;5011985;28;20189;-69
2021/10/03 08:07:24;;;;;;;4.10;3.70;;;21.30;61.60;;;;;;5008938;28;20199;-70
2021/10/03 08:09:50;;;;;;;3.42;3.28;;;21.70;60.40;;;;;;5006050;28;20181;-70
2021/10/03 08:12:16;;;;;;;3.22;3.03;;;22.30;60.40;;;;;;5007892;28;20201;-71
2021/10/03 08:14:42;;;;;;;3.95;3.63;;;23.00;59.70;;;;;;5009778;28;20559;-70
2021/10/03 08:17:08;;;;;;;3.80;3.55;;;23.70;58.20;;;;;;5011095;28;20177;-71
2021/10/03 08:19:34;;;;;;;3.58;3.38;;;24.20;57.80;;;;;;5003292;28;20280;-71
2021/10/03 08:22:00;;;;;;;3.92;3.60;;;24.90;57.10;;;;;;5009764;28;20220;-72
2021/10/03 08:24:26;;;;;;;3.75;3.55;;;25.30;56.30;;;;;;5005035;28;20243;-72
2021/10/03 08:26:52;;;;;;;3.67;3.42;;;25.70;55.50;;;;;;5010630;28;20264;-71
2021/10/03 08:29:18;;;;;;;4.28;4.03;;;26.20;55.20;;;;;;5006959;28;20209;-71
2021/10/03 08:31:44;;;;;;;4.10;3.70;;;26.60;54.10;;;;;;5009447;28;20191;-71
2021/10/03 08:34:10;;;;;;;5.25;4.00;;;27.10;54.00;;;;;;5007852;28;20239;-71
2021/10/03 08:36:36;;;;;;;3.70;3.47;;;27.70;53.20;;;;;;5010435;28;20200;-71
2021/10/03 08:39:01;;;;;;;4.45;4.20;;;28.40;53.30;;;;;;5011452;28;20196;-70
2021/10/03 08:41:27;;;;;;;4.20;3.58;;;29.00;52.00;;;;;;5003795;28;20243;-72
2021/10/03 08:43:53;;;;;;;3.80;3.08;;;29.70;52.20;;;;;;5008641;28;20212;-72
2021/10/03 08:46:24;;;;;;;2.95;2.75;;;30.30;50.20;;;;;;5010724;28;20208;-71
2021/10/03 08:48:50;;;;;;;5.30;3.63;;;30.90;50.20;;;;;;5016788;28;20635;-71
2021/10/03 08:51:15;;;;;;;4.07;3.88;;;31.40;48.50;;;;;;5009815;28;20180;-71
2021/10/03 08:53:41;;;;;;;4.32;4.00;;;31.60;47.40;;;;;;5010662;28;20266;-70
2021/10/03 08:56:07;;;;;;;4.65;3.63;;;31.70;47.40;;;;;;5006945;28;20183;-70
2021/10/03 08:58:33;;;;;;;4.35;3.58;;;31.70;47.80;;;;;;5011690;28;20181;-70
2021/10/03 09:00:59;;;;;;;9.23;3.30;;;31.60;48.30;;;;;;5012614;28;20176;-70
2021/10/03 09:03:25;;;;;;;3.65;3.45;;;31.80;47.40;;;;;;5003776;28;20275;-72
2021/10/03 09:05:59;;;;;;;5.07;3.35;;;32.00;46.90;;;;;;5011579;28;20621;-70
2021/10/03 09:08:26;;;;;;;4.13;3.90;;;32.30;46.40;;;;;;5005068;28;20200;-71
2021/10/03 09:10:58;;;;;;;3.58;3.38;;;32.20;46.90;;;;;;5014367;28;20184;-70
2021/10/03 09:13:44;;;;;;;8.35;3.53;;;32.20;44.30;;;;;;5004117;28;20666;-74
2021/10/03 09:16:24;;;;;;;3.50;3.20;;;32.30;44.90;;;;;;5011160;28;20227;-72
2021/10/03 09:18:58;;;;;;;3.53;3.35;;;32.80;46.20;;;;;;5004818;28;20176;-72
2021/10/03 09:21:31;;;;;;;3.38;3.17;;;33.30;46.60;;;;;;5012883;28;20215;-70
2021/10/03 09:24:01;;;;;;;3.10;3.00;;;33.90;46.20;;;;;;5004076;28;20187;-70
2021/10/03 09:26:27;;;;;;;3.35;3.10;;;34.50;46.00;;;;;;5016239;28;20238;-72
2021/10/03 09:28:53;;;;;;;4.63;2.78;;;35.00;45.50;;;;;;5007065;28;20190;-70
2021/10/03 09:31:21;;;;;;;2.45;2.35;;;35.40;43.50;;;;;;5002927;28;20226;-70
2021/10/03 09:33:49;;;;;;;3.05;2.80;;;35.80;42.60;;;;;;5003935;28;20243;-71
2021/10/03 09:36:26;;;;;;;4.30;2.47;;;35.90;43.90;;;;;;5003742;28;20188;-72
2021/10/03 09:38:59;;;;;;;3.40;2.80;;;35.90;43.80;;;;;;5005835;28;20191;-72
2021/10/03 09:41:29;;;;;;;3.00;2.80;;;36.00;43.90;;;;;;5010695;28;20192;-72
2021/10/03 09:44:07;;;;;;;6.57;2.47;;;36.10;44.00;;;;;;5016410;28;20187;-71
2021/10/03 09:46:50;;;;;;;2.65;2.45;;;36.30;42.80;;;;;;5014224;28;20238;-72
2021/10/03 09:49:24;;;;;;;2.05;2.05;;;36.40;41.70;;;;;;5018183;28;20219;-72
2021/10/03 09:51:51;;;;;;;2.33;2.22;;;36.60;41.60;;;;;;5017774;28;20693;-71
2021/10/03 09:54:19;;;;;;;2.50;2.35;;;36.50;43.40;;;;;;5015136;28;21152;-72
2021/10/03 09:56:46;;;;;;;2.45;2.35;;;36.80;43.90;;;;;;5022334;28;21065;-72
2021/10/03 09:59:13;;;;;;;3.42;2.30;;;37.40;38.80;;;;;;5014992;28;20670;-72
2021/10/03 10:01:44;;;;;;;2.30;2.05;;;37.40;42.40;;;;;;5015404;28;20189;-72
2021/10/03 10:04:11;;;;;;;3.10;2.30;;;37.60;41.50;;;;;;5013889;28;20180;-71
2021/10/03 10:06:37;;;;;;;2.38;2.22;;;37.70;42.50;;;;;;5016520;28;20226;-72
2021/10/03 10:09:13;;;;;;;4.15;2.65;;;37.60;41.00;;;;;;5011261;28;20180;-72
2021/10/03 10:12:04;;;;;;;2.75;2.55;;;37.60;39.70;;;;;;5020728;28;21015;-73
2021/10/03 10:14:37;;;;;;;2.78;2.67;;;37.60;39.10;;;;;;5016116;28;20218;-72
2021/10/03 10:17:30;;;;;;;2.17;2.08;;;37.30;42.70;;;;;;5013564;28;20183;-72
2021/10/03 10:19:56;;;;;;;2.22;2.13;;;37.00;38.30;;;;;;5018209;28;20520;-72
2021/10/03 10:22:28;;;;;;;2.70;2.50;;;36.50;43.00;;;;;;5015784;28;20180;-73
2021/10/03 10:24:59;;;;;;;2.15;2.10;;;36.70;39.80;;;;;;5015167;28;20700;-73
2021/10/03 10:27:25;;;;;;;2.28;2.08;;;36.80;42.70;;;;;;5018722;28;20188;-73
2021/10/03 10:29:59;;;;;;;2.75;2.20;;;37.00;42.50;;;;;;5009779;28;21023;-73
2021/10/03 10:32:57;;;;;;;2.20;2.08;;;37.30;41.80;;;;;;5014869;28;20288;-71
2021/10/03 10:35:31;;;;;;;4.40;2.20;;;37.50;38.80;;;;;;5012244;28;20728;-73
2021/10/03 10:37:56;;;;;;;2.30;2.13;;;37.60;41.50;;;;;;5018853;28;20576;-72
2021/10/03 10:40:22;;;;;;;3.97;1.67;;;37.80;41.90;;;;;;5017657;28;20179;-72
2021/10/03 10:42:51;;;;;;;1.83;1.73;;;37.80;41.20;;;;;;5013839;28;20278;-72
2021/10/03 10:45:33;;;;;;;5.47;1.73;;;37.60;41.30;;;;;;5018654;28;20192;-72
2021/10/03 10:48:11;;;;;;;1.48;1.48;;;37.30;39.80;;;;;;5011053;28;20283;-72
2021/10/03 10:50:42;;;;;;;2.30;1.52;;;37.40;39.50;;;;;;5017470;28;20176;-72
2021/10/03 10:53:28;;;;;;;1.70;1.60;;;37.70;40.40;;;;;;5010697;28;20959;-72
2021/10/03 10:56:03;;;;;;;1.30;1.30;;;37.90;38.50;;;;;;5017003;28;20211;-72
2021/10/03 10:58:30;;;;;;;4.25;1.70;;;37.60;37.70;;;;;;5012869;28;20211;-72
2021/10/03 11:00:59;;;;;;;8.63;1.58;;;37.20;39.70;;;;;;5017594;28;20259;-72
2021/10/03 11:03:43;;;;;;;1.67;1.63;;;37.20;41.20;;;;;;5014169;28;20276;-71
2021/10/03 11:06:13;;;;;;;2.03;1.67;;;36.90;37.80;;;;;;5019702;28;20719;-71
2021/10/03 11:08:58;;;;;;;1.42;1.40;;;36.40;39.90;;;;;;5018296;28;20183;-72
2021/10/03 11:11:31;;;;;;;1.45;1.45;;;35.40;38.40;;;;;;5011469;28;20180;-71
2021/10/03 11:14:15;;;;;;;3.67;1.75;;;35.00;41.80;;;;;;5011046;28;20219;-71
2021/10/03 11:16:46;;;;;;;1.27;1.27;;;34.60;41.00;;;;;;5012256;28;20294;-72
2021/10/03 11:19:31;;;;;;;2.75;1.58;;;35.00;41.10;;;;;;5011581;28;20262;-72
2021/10/03 11:22:03;;;;;;;2.22;1.10;;;35.40;41.30;;;;;;5012837;28;20254;-70
2021/10/03 11:24:34;;;;;;;2.00;1.42;;;35.80;42.40;;;;;;5015941;28;20184;-70
2021/10/03 11:27:05;;;;;;;1.48;1.48;;;36.30;41.50;;;;;;5013104;28;20674;-71
2021/10/03 11:29:33;;;;;;;1.55;1.55;;;36.60;41.00;;;;;;5015716;28;20180;-71
2021/10/03 11:32:05;;;;;;;1.35;1.35;;;37.00;38.70;;;;;;5013178;28;20262;-71
2021/10/03 11:34:38;;;;;;;1.42;1.42;;;37.40;39.60;;;;;;5014486;28;20183;-71
2021/10/03 11:37:09;;;;;;;1.23;1.23;;;37.70;39.60;;;;;;5020755;28;20177;-71
2021/10/03 11:39:36;;;;;;;2.60;1.17;;;37.70;40.50;;;;;;5014691;28;20276;-71
2021/10/03 11:42:02;;;;;;;1.50;1.40;;;37.90;40.90;;;;;;5015306;28;20180;-72
2021/10/03 11:44:28;;;;;;;1.88;1.30;;;38.00;41.00;;;;;;5013005;28;20688;-71
2021/10/03 11:47:00;;;;;;;1.52;1.38;;;38.20;39.70;;;;;;5014255;28;20177;-72
2021/10/03 11:49:30;;;;;;;1.88;1.08;;;38.40;38.60;;;;;;5010849;28;20180;-71
2021/10/03 11:51:57;;;;;;;1.60;1.00;;;38.30;37.40;;;;;;5014771;28;20626;-72
2021/10/03 11:54:33;;;;;;;3.70;1.00;;;38.20;39.60;;;;;;5011638;28;20659;-72
2021/10/03 11:57:16;;;;;;;1.20;1.20;;;37.90;37.80;;;;;;5015585;28;20242;-72
2021/10/03 11:59:42;;;;;;;1.10;1.10;;;37.40;36.10;;;;;;5012910;28;20184;-73
2021/10/03 12:02:13;;;;;;;1.25;1.15;;;36.90;38.80;;;;;;5017543;28;20176;-72
2021/10/03 12:04:59;;;;;;;1.20;1.10;;;36.20;38.90;;;;;;5011920;28;20247;-70
2021/10/03 12:07:26;;;;;;;1.67;0.93;;;35.80;38.30;;;;;;5018039;28;20180;-69
2021/10/03 12:10:12;;;;;;;1.15;1.15;;;35.60;40.50;;;;;;5014173;28;20178;-69
2021/10/03 12:12:51;;;;;;;1.23;1.13;;;35.70;38.70;;;;;;5015605;28;20216;-69
2021/10/03 12:15:34;;;;;;;1.60;1.50;;;35.70;39.10;;;;;;5012765;28;20210;-69
2021/10/03 12:17:59;;;;;;;1.25;1.25;;;35.40;37.60;;;;;;5017114;28;20259;-69
2021/10/03 12:20:25;;;;;;;2.33;1.20;;;35.20;39.70;;;;;;5011018;28;20636;-69
2021/10/03 12:22:55;;;;;;;1.20;1.20;;;34.90;41.10;;;;;;5015383;28;20189;-69
2021/10/03 12:25:21;;;;;;;1.75;1.50;;;35.00;40.10;;;;;;5018220;28;20296;-70
2021/10/03 12:28:13;;;;;;;1.20;1.20;;;35.10;40.30;;;;;;5012323;28;20273;-69
2021/10/03 12:30:52;;;;;;;1.50;1.40;;;35.20;38.00;;;;;;5016832;28;20202;-69
2021/10/03 12:33:19;;;;;;;1.85;1.08;;;35.20;38.20;;;;;;5011079;28;20222;-70
2021/10/03 12:36:03;;;;;;;5.35;1.35;;;35.30;38.80;;;;;;5015214;28;20207;-69
2021/10/03 12:38:30;;;;;;;1.35;1.35;;;35.30;38.60;;;;;;5015335;28;20275;-70
2021/10/03 12:40:57;;;;;;;1.50;1.20;;;35.30;39.50;;;;;;5011727;28;20186;-69
2021/10/03 12:43:25;;;;;;;2.60;1.13;;;35.40;40.10;;;;;;5012703;28;20188;-71
2021/10/03 12:45:51;;;;;;;1.85;1.05;;;35.40;38.10;;;;;;5010539;28;20199;-73
2021/10/03 12:48:17;;;;;;;1.23;1.00;;;35.50;40.80;;;;;;5016711;28;20245;-72
2021/10/03 12:50:44;;;;;;;1.55;0.90;;;35.50;37.40;;;;;;5015402;28;20200;-72
2021/10/03 12:53:11;;;;;;;0.50;0.50;;;35.50;38.60;;;;;;5010584;28;20216;-72
2021/10/03 12:55:37;;;;;;;0.68;0.68;;;35.60;39.50;;;;;;5012334;28;20639;-72
2021/10/03 12:58:02;;;;;;;0.90;0.90;;;35.60;37.90;;;;;;5012675;28;20181;-72